sensor_id;sensor_type;location;lat;lon;timestamp;P1;durP1;ratioP1;P2;durP2;ratioP2
72920;SDS011;61064;51.654;5.476;2023-03-08T00:00:16;13.32;;;5.63;;
72920;SDS011;61064;51.654;5.476;2023-03-08T00:02:42;12.68;;;6.13;;
72920;SDS011;61064;51.654;5.476;2023-03-08T00:05:08;13.95;;;6.15;;
72920;SDS011;61064;51.654;5.476;2023-03-08T00:07:34;15.75;;;6.20;;
72920;SDS011;61064;51.654;5.476;2023-03-08T00:09:59;16.87;;;6.73;;
72920;SDS011;61064;51.654;5.476;2023-03-08T00:12:25;20.93;;;7.50;;
72920;SDS011;61064;51.654;5.476;2023-03-08T00:14:50;19.53;;;7.63;;
72920;SDS011;61064;51.654;5.476;2023-03-08T00:17:16;17.98;;;7.22;;
72920;SDS011;61064;51.654;5.476;2023-03-08T00:19:42;16.75;;;7.50;;
72920;SDS011;61064;51.654;5.476;2023-03-08T00:22:08;23.33;;;8.63;;
72920;SDS011;61064;51.654;5.476;2023-03-08T00:24:35;18.35;;;8.52;;
72920;SDS011;61064;51.654;5.476;2023-03-08T00:27:00;18.33;;;8.77;;
72920;SDS011;61064;51.654;5.476;2023-03-08T00:29:26;20.27;;;8.27;;
72920;SDS011;61064;51.654;5.476;2023-03-08T00:31:51;17.17;;;8.50;;
72920;SDS011;61064;51.654;5.476;2023-03-08T00:34:16;20.97;;;8.83;;
72920;SDS011;61064;51.654;5.476;2023-03-08T00:36:42;19.17;;;9.13;;
72920;SDS011;61064;51.654;5.476;2023-03-08T00:39:08;19.20;;;8.23;;
72920;SDS011;61064;51.654;5.476;2023-03-08T00:41:35;18.05;;;8.52;;
72920;SDS011;61064;51.654;5.476;2023-03-08T00:44:01;19.65;;;8.85;;
72920;SDS011;61064;51.654;5.476;2023-03-08T00:46:26;20.27;;;8.87;;
72920;SDS011;61064;51.654;5.476;2023-03-08T00:48:52;18.45;;;8.65;;
72920;SDS011;61064;51.654;5.476;2023-03-08T00:51:18;20.73;;;9.20;;
72920;SDS011;61064;51.654;5.476;2023-03-08T00:53:44;17.88;;;9.00;;
72920;SDS011;61064;51.654;5.476;2023-03-08T00:56:10;20.87;;;9.63;;
72920;SDS011;61064;51.654;5.476;2023-03-08T00:58:37;19.42;;;9.95;;
72920;SDS011;61064;51.654;5.476;2023-03-08T01:01:04;19.02;;;9.82;;
72920;SDS011;61064;51.654;5.476;2023-03-08T01:03:30;23.40;;;10.20;;
72920;SDS011;61064;51.654;5.476;2023-03-08T01:05:57;20.90;;;10.07;;
72920;SDS011;61064;51.654;5.476;2023-03-08T01:08:24;22.30;;;10.73;;
72920;SDS011;61064;51.654;5.476;2023-03-08T01:10:54;21.75;;;10.07;;
72920;SDS011;61064;51.654;5.476;2023-03-08T01:13:23;21.25;;;10.23;;
72920;SDS011;61064;51.654;5.476;2023-03-08T01:15:53;23.77;;;11.33;;
72920;SDS011;61064;51.654;5.476;2023-03-08T01:18:18;24.40;;;10.75;;
72920;SDS011;61064;51.654;5.476;2023-03-08T01:20:44;23.50;;;11.13;;
72920;SDS011;61064;51.654;5.476;2023-03-08T01:23:09;22.77;;;11.00;;
72920;SDS011;61064;51.654;5.476;2023-03-08T01:25:35;25.27;;;11.82;;
72920;SDS011;61064;51.654;5.476;2023-03-08T01:28:01;23.83;;;11.18;;
72920;SDS011;61064;51.654;5.476;2023-03-08T01:30:27;23.63;;;12.00;;
72920;SDS011;61064;51.654;5.476;2023-03-08T01:32:52;25.53;;;11.63;;
72920;SDS011;61064;51.654;5.476;2023-03-08T01:35:18;29.25;;;13.18;;
72920;SDS011;61064;51.654;5.476;2023-03-08T01:37:43;26.70;;;12.00;;
72920;SDS011;61064;51.654;5.476;2023-03-08T01:40:10;23.33;;;11.73;;
72920;SDS011;61064;51.654;5.476;2023-03-08T01:42:40;25.42;;;12.10;;
72920;SDS011;61064;51.654;5.476;2023-03-08T01:45:05;28.83;;;13.82;;
72920;SDS011;61064;51.654;5.476;2023-03-08T01:48:09;28.50;;;13.30;;
72920;SDS011;61064;51.654;5.476;2023-03-08T01:50:36;27.80;;;12.55;;
72920;SDS011;61064;51.654;5.476;2023-03-08T01:53:02;25.70;;;12.77;;
72920;SDS011;61064;51.654;5.476;2023-03-08T01:55:28;27.40;;;12.98;;
72920;SDS011;61064;51.654;5.476;2023-03-08T01:57:53;28.13;;;13.77;;
72920;SDS011;61064;51.654;5.476;2023-03-08T02:00:21;27.92;;;13.95;;
72920;SDS011;61064;51.654;5.476;2023-03-08T02:02:56;26.85;;;13.60;;
72920;SDS011;61064;51.654;5.476;2023-03-08T02:05:24;29.75;;;14.02;;
72920;SDS011;61064;51.654;5.476;2023-03-08T02:07:50;28.90;;;13.52;;
72920;SDS011;61064;51.654;5.476;2023-03-08T02:10:16;32.33;;;14.53;;
72920;SDS011;61064;51.654;5.476;2023-03-08T02:12:42;35.63;;;15.13;;
72920;SDS011;61064;51.654;5.476;2023-03-08T02:15:09;34.60;;;14.33;;
72920;SDS011;61064;51.654;5.476;2023-03-08T02:17:36;35.95;;;15.80;;
72920;SDS011;61064;51.654;5.476;2023-03-08T02:20:11;38.00;;;16.50;;
72920;SDS011;61064;51.654;5.476;2023-03-08T02:22:39;42.10;;;16.70;;
72920;SDS011;61064;51.654;5.476;2023-03-08T02:25:15;38.47;;;16.40;;
72920;SDS011;61064;51.654;5.476;2023-03-08T02:27:51;40.35;;;15.82;;
72920;SDS011;61064;51.654;5.476;2023-03-08T02:30:22;43.45;;;16.45;;
72920;SDS011;61064;51.654;5.476;2023-03-08T02:32:49;38.92;;;16.27;;
72920;SDS011;61064;51.654;5.476;2023-03-08T02:35:15;37.20;;;17.03;;
72920;SDS011;61064;51.654;5.476;2023-03-08T02:37:41;40.85;;;17.08;;
72920;SDS011;61064;51.654;5.476;2023-03-08T02:40:07;45.67;;;17.73;;
72920;SDS011;61064;51.654;5.476;2023-03-08T02:42:33;37.13;;;16.52;;
72920;SDS011;61064;51.654;5.476;2023-03-08T02:44:59;42.42;;;17.33;;
72920;SDS011;61064;51.654;5.476;2023-03-08T02:47:24;46.10;;;17.40;;
72920;SDS011;61064;51.654;5.476;2023-03-08T02:49:50;42.23;;;16.93;;
72920;SDS011;61064;51.654;5.476;2023-03-08T02:52:15;41.43;;;16.30;;
72920;SDS011;61064;51.654;5.476;2023-03-08T02:54:41;40.00;;;15.98;;
72920;SDS011;61064;51.654;5.476;2023-03-08T02:57:06;45.77;;;17.60;;
72920;SDS011;61064;51.654;5.476;2023-03-08T02:59:32;43.97;;;17.43;;
72920;SDS011;61064;51.654;5.476;2023-03-08T03:02:00;45.75;;;17.67;;
72920;SDS011;61064;51.654;5.476;2023-03-08T03:04:30;47.30;;;17.13;;
72920;SDS011;61064;51.654;5.476;2023-03-08T03:06:59;43.40;;;17.20;;
72920;SDS011;61064;51.654;5.476;2023-03-08T03:09:25;42.40;;;16.20;;
72920;SDS011;61064;51.654;5.476;2023-03-08T03:11:51;47.85;;;17.42;;
72920;SDS011;61064;51.654;5.476;2023-03-08T03:14:16;48.93;;;17.73;;
72920;SDS011;61064;51.654;5.476;2023-03-08T03:16:42;46.43;;;17.33;;
72920;SDS011;61064;51.654;5.476;2023-03-08T03:19:07;49.50;;;18.13;;
72920;SDS011;61064;51.654;5.476;2023-03-08T03:21:33;49.10;;;18.05;;
72920;SDS011;61064;51.654;5.476;2023-03-08T03:23:59;50.13;;;18.10;;
72920;SDS011;61064;51.654;5.476;2023-03-08T03:26:24;49.45;;;17.48;;
72920;SDS011;61064;51.654;5.476;2023-03-08T03:28:50;51.93;;;18.40;;
72920;SDS011;61064;51.654;5.476;2023-03-08T03:31:19;51.55;;;17.48;;
72920;SDS011;61064;51.654;5.476;2023-03-08T03:33:47;47.85;;;17.52;;
72920;SDS011;61064;51.654;5.476;2023-03-08T03:36:13;49.28;;;16.85;;
72920;SDS011;61064;51.654;5.476;2023-03-08T03:38:41;50.33;;;18.05;;
72920;SDS011;61064;51.654;5.476;2023-03-08T03:41:08;48.42;;;17.42;;
72920;SDS011;61064;51.654;5.476;2023-03-08T03:43:36;52.95;;;19.13;;
72920;SDS011;61064;51.654;5.476;2023-03-08T03:46:04;47.38;;;17.60;;
72920;SDS011;61064;51.654;5.476;2023-03-08T03:48:32;49.75;;;17.85;;
72920;SDS011;61064;51.654;5.476;2023-03-08T03:51:00;53.60;;;17.33;;
72920;SDS011;61064;51.654;5.476;2023-03-08T03:53:28;49.35;;;17.23;;
72920;SDS011;61064;51.654;5.476;2023-03-08T03:56:00;51.38;;;18.00;;
72920;SDS011;61064;51.654;5.476;2023-03-08T03:58:37;50.38;;;17.13;;
72920;SDS011;61064;51.654;5.476;2023-03-08T04:01:10;49.97;;;18.05;;
72920;SDS011;61064;51.654;5.476;2023-03-08T04:03:40;53.60;;;18.07;;
72920;SDS011;61064;51.654;5.476;2023-03-08T04:06:10;45.28;;;17.00;;
72920;SDS011;61064;51.654;5.476;2023-03-08T04:08:39;46.10;;;17.45;;
72920;SDS011;61064;51.654;5.476;2023-03-08T04:11:07;47.33;;;16.87;;
72920;SDS011;61064;51.654;5.476;2023-03-08T04:13:37;46.03;;;18.13;;
72920;SDS011;61064;51.654;5.476;2023-03-08T04:16:10;50.53;;;17.45;;
72920;SDS011;61064;51.654;5.476;2023-03-08T04:18:39;47.78;;;17.50;;
72920;SDS011;61064;51.654;5.476;2023-03-08T04:21:05;47.33;;;16.60;;
72920;SDS011;61064;51.654;5.476;2023-03-08T04:23:31;47.33;;;17.52;;
72920;SDS011;61064;51.654;5.476;2023-03-08T04:25:57;45.57;;;17.80;;
72920;SDS011;61064;51.654;5.476;2023-03-08T04:28:23;48.03;;;17.33;;
72920;SDS011;61064;51.654;5.476;2023-03-08T04:30:49;47.97;;;18.20;;
72920;SDS011;61064;51.654;5.476;2023-03-08T04:33:14;44.65;;;17.73;;
72920;SDS011;61064;51.654;5.476;2023-03-08T04:35:40;47.53;;;17.57;;
72920;SDS011;61064;51.654;5.476;2023-03-08T04:38:05;42.93;;;16.20;;
72920;SDS011;61064;51.654;5.476;2023-03-08T04:40:31;43.90;;;16.80;;
72920;SDS011;61064;51.654;5.476;2023-03-08T04:42:57;45.08;;;17.40;;
72920;SDS011;61064;51.654;5.476;2023-03-08T04:45:22;46.85;;;17.17;;
72920;SDS011;61064;51.654;5.476;2023-03-08T04:47:48;48.13;;;16.90;;
72920;SDS011;61064;51.654;5.476;2023-03-08T04:50:13;47.73;;;16.97;;
72920;SDS011;61064;51.654;5.476;2023-03-08T04:52:39;47.55;;;16.73;;
72920;SDS011;61064;51.654;5.476;2023-03-08T04:55:05;44.93;;;17.50;;
72920;SDS011;61064;51.654;5.476;2023-03-08T04:57:31;48.53;;;16.92;;
72920;SDS011;61064;51.654;5.476;2023-03-08T04:59:56;41.10;;;16.13;;
72920;SDS011;61064;51.654;5.476;2023-03-08T05:02:22;41.90;;;16.20;;
72920;SDS011;61064;51.654;5.476;2023-03-08T05:04:48;44.08;;;16.08;;
72920;SDS011;61064;51.654;5.476;2023-03-08T05:07:14;41.23;;;16.20;;
72920;SDS011;61064;51.654;5.476;2023-03-08T05:09:40;39.20;;;15.15;;
72920;SDS011;61064;51.654;5.476;2023-03-08T05:12:05;38.00;;;14.40;;
72920;SDS011;61064;51.654;5.476;2023-03-08T05:14:31;39.10;;;14.80;;
72920;SDS011;61064;51.654;5.476;2023-03-08T05:16:56;36.20;;;14.73;;
72920;SDS011;61064;51.654;5.476;2023-03-08T05:19:22;32.20;;;13.30;;
72920;SDS011;61064;51.654;5.476;2023-03-08T05:21:48;36.03;;;13.52;;
72920;SDS011;61064;51.654;5.476;2023-03-08T05:24:13;32.28;;;13.88;;
72920;SDS011;61064;51.654;5.476;2023-03-08T05:26:39;32.20;;;13.23;;
72920;SDS011;61064;51.654;5.476;2023-03-08T05:29:04;32.10;;;13.27;;
72920;SDS011;61064;51.654;5.476;2023-03-08T05:31:31;32.33;;;13.40;;
72920;SDS011;61064;51.654;5.476;2023-03-08T05:33:57;32.50;;;13.00;;
72920;SDS011;61064;51.654;5.476;2023-03-08T05:36:23;29.33;;;13.03;;
72920;SDS011;61064;51.654;5.476;2023-03-08T05:38:54;32.10;;;12.67;;
72920;SDS011;61064;51.654;5.476;2023-03-08T05:41:20;32.30;;;12.93;;
72920;SDS011;61064;51.654;5.476;2023-03-08T05:43:46;35.13;;;14.82;;
72920;SDS011;61064;51.654;5.476;2023-03-08T05:46:13;31.97;;;13.50;;
72920;SDS011;61064;51.654;5.476;2023-03-08T05:48:40;35.75;;;14.27;;
72920;SDS011;61064;51.654;5.476;2023-03-08T05:51:07;34.17;;;13.97;;
72920;SDS011;61064;51.654;5.476;2023-03-08T05:53:37;36.78;;;13.95;;
72920;SDS011;61064;51.654;5.476;2023-03-08T05:56:09;37.47;;;15.05;;
72920;SDS011;61064;51.654;5.476;2023-03-08T05:58:39;36.47;;;14.43;;
72920;SDS011;61064;51.654;5.476;2023-03-08T06:01:09;34.40;;;13.18;;
72920;SDS011;61064;51.654;5.476;2023-03-08T06:03:46;34.17;;;13.00;;
72920;SDS011;61064;51.654;5.476;2023-03-08T06:06:13;34.60;;;13.32;;
72920;SDS011;61064;51.654;5.476;2023-03-08T06:08:39;29.50;;;12.83;;
72920;SDS011;61064;51.654;5.476;2023-03-08T06:11:05;31.95;;;13.07;;
72920;SDS011;61064;51.654;5.476;2023-03-08T06:13:31;30.83;;;12.83;;
72920;SDS011;61064;51.654;5.476;2023-03-08T06:15:57;32.25;;;12.40;;
72920;SDS011;61064;51.654;5.476;2023-03-08T06:18:23;31.55;;;12.43;;
72920;SDS011;61064;51.654;5.476;2023-03-08T06:20:54;31.63;;;13.23;;
72920;SDS011;61064;51.654;5.476;2023-03-08T06:23:27;28.42;;;12.18;;
72920;SDS011;61064;51.654;5.476;2023-03-08T06:25:54;29.10;;;12.68;;
72920;SDS011;61064;51.654;5.476;2023-03-08T06:28:20;29.70;;;11.50;;
72920;SDS011;61064;51.654;5.476;2023-03-08T06:30:46;29.27;;;11.40;;
72920;SDS011;61064;51.654;5.476;2023-03-08T06:33:16;29.48;;;11.68;;
72920;SDS011;61064;51.654;5.476;2023-03-08T06:35:43;33.42;;;12.05;;
72920;SDS011;61064;51.654;5.476;2023-03-08T06:38:18;28.98;;;11.07;;
72920;SDS011;61064;51.654;5.476;2023-03-08T06:40:44;27.73;;;10.33;;
72920;SDS011;61064;51.654;5.476;2023-03-08T06:43:09;27.33;;;10.70;;
72920;SDS011;61064;51.654;5.476;2023-03-08T06:45:36;26.57;;;10.73;;
72920;SDS011;61064;51.654;5.476;2023-03-08T06:48:02;29.60;;;11.32;;
72920;SDS011;61064;51.654;5.476;2023-03-08T06:50:27;25.17;;;10.13;;
72920;SDS011;61064;51.654;5.476;2023-03-08T06:52:53;27.60;;;9.83;;
72920;SDS011;61064;51.654;5.476;2023-03-08T06:55:18;23.75;;;9.70;;
72920;SDS011;61064;51.654;5.476;2023-03-08T06:57:44;20.27;;;7.87;;
72920;SDS011;61064;51.654;5.476;2023-03-08T07:00:11;19.50;;;8.20;;
72920;SDS011;61064;51.654;5.476;2023-03-08T07:02:37;18.50;;;7.53;;
72920;SDS011;61064;51.654;5.476;2023-03-08T07:05:03;19.20;;;7.10;;
72920;SDS011;61064;51.654;5.476;2023-03-08T07:07:28;17.83;;;7.20;;
72920;SDS011;61064;51.654;5.476;2023-03-08T07:09:54;18.45;;;6.88;;
72920;SDS011;61064;51.654;5.476;2023-03-08T07:12:19;16.67;;;6.13;;
72920;SDS011;61064;51.654;5.476;2023-03-08T07:14:44;14.93;;;6.07;;
72920;SDS011;61064;51.654;5.476;2023-03-08T07:17:10;12.67;;;4.43;;
72920;SDS011;61064;51.654;5.476;2023-03-08T07:19:35;14.27;;;5.03;;
72920;SDS011;61064;51.654;5.476;2023-03-08T07:22:01;13.30;;;5.15;;
72920;SDS011;61064;51.654;5.476;2023-03-08T07:24:26;13.57;;;4.80;;
72920;SDS011;61064;51.654;5.476;2023-03-08T07:26:51;13.87;;;5.33;;
72920;SDS011;61064;51.654;5.476;2023-03-08T07:29:17;15.30;;;6.00;;
72920;SDS011;61064;51.654;5.476;2023-03-08T07:31:42;14.60;;;5.77;;
72920;SDS011;61064;51.654;5.476;2023-03-08T07:34:07;15.00;;;5.63;;
72920;SDS011;61064;51.654;5.476;2023-03-08T07:36:33;13.83;;;5.17;;
72920;SDS011;61064;51.654;5.476;2023-03-08T07:38:58;15.60;;;5.10;;
72920;SDS011;61064;51.654;5.476;2023-03-08T07:41:24;15.10;;;5.37;;
72920;SDS011;61064;51.654;5.476;2023-03-08T07:43:49;14.57;;;5.47;;
72920;SDS011;61064;51.654;5.476;2023-03-08T07:46:14;14.67;;;5.03;;
72920;SDS011;61064;51.654;5.476;2023-03-08T07:48:40;14.13;;;5.00;;
72920;SDS011;61064;51.654;5.476;2023-03-08T07:51:06;11.93;;;4.77;;
72920;SDS011;61064;51.654;5.476;2023-03-08T07:53:34;11.98;;;4.68;;
72920;SDS011;61064;51.654;5.476;2023-03-08T07:56:00;14.65;;;5.10;;
72920;SDS011;61064;51.654;5.476;2023-03-08T07:58:26;13.88;;;4.90;;
72920;SDS011;61064;51.654;5.476;2023-03-08T08:00:53;15.07;;;4.77;;
72920;SDS011;61064;51.654;5.476;2023-03-08T08:03:18;16.90;;;5.47;;
72920;SDS011;61064;51.654;5.476;2023-03-08T08:05:44;13.40;;;5.25;;
72920;SDS011;61064;51.654;5.476;2023-03-08T08:08:09;14.00;;;4.72;;
72920;SDS011;61064;51.654;5.476;2023-03-08T08:10:37;11.50;;;4.93;;
72920;SDS011;61064;51.654;5.476;2023-03-08T08:13:05;11.45;;;4.57;;
72920;SDS011;61064;51.654;5.476;2023-03-08T08:15:30;10.30;;;3.80;;
72920;SDS011;61064;51.654;5.476;2023-03-08T08:17:57;11.80;;;4.43;;
72920;SDS011;61064;51.654;5.476;2023-03-08T08:20:22;10.93;;;4.10;;
72920;SDS011;61064;51.654;5.476;2023-03-08T08:22:49;11.18;;;4.10;;
72920;SDS011;61064;51.654;5.476;2023-03-08T08:25:17;13.10;;;4.87;;
72920;SDS011;61064;51.654;5.476;2023-03-08T08:27:43;12.75;;;4.38;;
72920;SDS011;61064;51.654;5.476;2023-03-08T08:30:10;11.87;;;4.80;;
72920;SDS011;61064;51.654;5.476;2023-03-08T08:32:37;10.63;;;3.83;;
72920;SDS011;61064;51.654;5.476;2023-03-08T08:35:02;13.20;;;4.60;;
72920;SDS011;61064;51.654;5.476;2023-03-08T08:37:29;11.02;;;4.25;;
72920;SDS011;61064;51.654;5.476;2023-03-08T08:39:56;13.40;;;4.65;;
72920;SDS011;61064;51.654;5.476;2023-03-08T08:42:21;11.20;;;4.20;;
72920;SDS011;61064;51.654;5.476;2023-03-08T08:44:47;12.18;;;4.65;;
72920;SDS011;61064;51.654;5.476;2023-03-08T08:47:12;10.73;;;4.40;;
72920;SDS011;61064;51.654;5.476;2023-03-08T08:49:37;11.80;;;4.30;;
72920;SDS011;61064;51.654;5.476;2023-03-08T08:52:03;12.37;;;4.97;;
72920;SDS011;61064;51.654;5.476;2023-03-08T08:54:29;11.55;;;4.40;;
72920;SDS011;61064;51.654;5.476;2023-03-08T08:56:55;12.13;;;4.40;;
72920;SDS011;61064;51.654;5.476;2023-03-08T08:59:20;13.33;;;4.37;;
72920;SDS011;61064;51.654;5.476;2023-03-08T09:01:45;12.07;;;4.70;;
72920;SDS011;61064;51.654;5.476;2023-03-08T09:04:11;14.00;;;4.90;;
72920;SDS011;61064;51.654;5.476;2023-03-08T09:06:37;12.52;;;5.00;;
72920;SDS011;61064;51.654;5.476;2023-03-08T09:09:03;12.23;;;5.20;;
72920;SDS011;61064;51.654;5.476;2023-03-08T09:11:29;14.93;;;5.35;;
72920;SDS011;61064;51.654;5.476;2023-03-08T09:13:55;13.70;;;4.93;;
72920;SDS011;61064;51.654;5.476;2023-03-08T09:16:22;14.00;;;5.27;;
72920;SDS011;61064;51.654;5.476;2023-03-08T09:18:52;12.05;;;5.20;;
72920;SDS011;61064;51.654;5.476;2023-03-08T09:21:20;12.43;;;5.10;;
72920;SDS011;61064;51.654;5.476;2023-03-08T09:23:45;13.00;;;5.70;;
72920;SDS011;61064;51.654;5.476;2023-03-08T09:26:11;13.50;;;5.97;;
72920;SDS011;61064;51.654;5.476;2023-03-08T09:28:36;17.33;;;5.90;;
72920;SDS011;61064;51.654;5.476;2023-03-08T09:31:05;15.50;;;6.20;;
72920;SDS011;61064;51.654;5.476;2023-03-08T09:33:39;15.23;;;6.03;;
72920;SDS011;61064;51.654;5.476;2023-03-08T09:36:08;16.30;;;6.63;;
72920;SDS011;61064;51.654;5.476;2023-03-08T09:38:34;18.48;;;7.25;;
72920;SDS011;61064;51.654;5.476;2023-03-08T09:44:03;16.95;;;7.00;;
72920;SDS011;61064;51.654;5.476;2023-03-08T09:49:26;22.40;;;7.75;;
72920;SDS011;61064;51.654;5.476;2023-03-08T09:52:03;20.38;;;7.90;;
72920;SDS011;61064;51.654;5.476;2023-03-08T09:54:37;22.10;;;9.10;;
72920;SDS011;61064;51.654;5.476;2023-03-08T09:57:04;21.43;;;8.17;;
72920;SDS011;61064;51.654;5.476;2023-03-08T10:02:16;21.27;;;8.23;;
72920;SDS011;61064;51.654;5.476;2023-03-08T10:04:45;19.48;;;7.47;;
72920;SDS011;61064;51.654;5.476;2023-03-08T10:07:18;20.08;;;7.43;;
72920;SDS011;61064;51.654;5.476;2023-03-08T10:15:18;19.90;;;7.75;;
72920;SDS011;61064;51.654;5.476;2023-03-08T10:17:48;17.40;;;7.57;;
72920;SDS011;61064;51.654;5.476;2023-03-08T10:23:19;16.55;;;7.15;;
72920;SDS011;61064;51.654;5.476;2023-03-08T10:25:46;17.30;;;7.18;;
72920;SDS011;61064;51.654;5.476;2023-03-08T10:28:17;19.38;;;7.05;;
72920;SDS011;61064;51.654;5.476;2023-03-08T10:30:45;16.77;;;6.97;;
72920;SDS011;61064;51.654;5.476;2023-03-08T10:33:18;16.00;;;7.35;;
72920;SDS011;61064;51.654;5.476;2023-03-08T10:38:17;18.67;;;7.85;;
72920;SDS011;61064;51.654;5.476;2023-03-08T10:40:43;19.53;;;8.67;;
72920;SDS011;61064;51.654;5.476;2023-03-08T10:43:13;18.10;;;7.50;;
72920;SDS011;61064;51.654;5.476;2023-03-08T10:46:00;19.30;;;8.48;;
72920;SDS011;61064;51.654;5.476;2023-03-08T10:48:27;16.98;;;7.22;;
72920;SDS011;61064;51.654;5.476;2023-03-08T10:51:03;16.83;;;7.30;;
72920;SDS011;61064;51.654;5.476;2023-03-08T10:53:30;17.35;;;8.20;;
72920;SDS011;61064;51.654;5.476;2023-03-08T10:55:58;15.57;;;7.03;;
72920;SDS011;61064;51.654;5.476;2023-03-08T11:01:04;14.00;;;6.43;;
72920;SDS011;61064;51.654;5.476;2023-03-08T11:03:32;15.67;;;6.30;;
72920;SDS011;61064;51.654;5.476;2023-03-08T11:09:18;13.60;;;6.18;;
72920;SDS011;61064;51.654;5.476;2023-03-08T11:11:19;13.65;;;5.72;;
72920;SDS011;61064;51.654;5.476;2023-03-08T11:13:45;12.97;;;5.70;;
72920;SDS011;61064;51.654;5.476;2023-03-08T11:25:00;11.55;;;4.78;;
72920;SDS011;61064;51.654;5.476;2023-03-08T11:30:37;11.55;;;5.07;;
72920;SDS011;61064;51.654;5.476;2023-03-08T11:38:50;12.70;;;5.88;;
72920;SDS011;61064;51.654;5.476;2023-03-08T11:41:35;10.90;;;4.72;;
72920;SDS011;61064;51.654;5.476;2023-03-08T12:01:01;11.47;;;4.60;;
72920;SDS011;61064;51.654;5.476;2023-03-08T12:03:35;11.70;;;5.60;;
72920;SDS011;61064;51.654;5.476;2023-03-08T12:06:05;13.02;;;6.00;;
72920;SDS011;61064;51.654;5.476;2023-03-08T12:08:43;12.20;;;5.38;;
72920;SDS011;61064;51.654;5.476;2023-03-08T12:11:31;15.13;;;5.93;;
72920;SDS011;61064;51.654;5.476;2023-03-08T12:14:17;14.03;;;5.63;;
72920;SDS011;61064;51.654;5.476;2023-03-08T12:16:53;12.63;;;5.75;;
72920;SDS011;61064;51.654;5.476;2023-03-08T12:19:29;14.52;;;5.53;;
72920;SDS011;61064;51.654;5.476;2023-03-08T12:24:54;11.98;;;4.75;;
72920;SDS011;61064;51.654;5.476;2023-03-08T12:27:36;11.87;;;4.63;;
72920;SDS011;61064;51.654;5.476;2023-03-08T12:33:04;11.55;;;4.60;;
72920;SDS011;61064;51.654;5.476;2023-03-08T12:35:34;11.15;;;4.60;;
72920;SDS011;61064;51.654;5.476;2023-03-08T12:38:02;10.95;;;4.47;;
72920;SDS011;61064;51.654;5.476;2023-03-08T12:40:36;11.53;;;4.30;;
72920;SDS011;61064;51.654;5.476;2023-03-08T12:43:03;10.88;;;4.55;;
72920;SDS011;61064;51.654;5.476;2023-03-08T12:45:34;11.35;;;4.95;;
72920;SDS011;61064;51.654;5.476;2023-03-08T12:50:28;12.15;;;3.75;;
72920;SDS011;61064;51.654;5.476;2023-03-08T12:52:55;9.95;;;3.95;;
72920;SDS011;61064;51.654;5.476;2023-03-08T12:55:26;10.23;;;3.75;;
72920;SDS011;61064;51.654;5.476;2023-03-08T12:57:55;9.10;;;3.47;;
72920;SDS011;61064;51.654;5.476;2023-03-08T13:05:36;9.27;;;3.65;;
72920;SDS011;61064;51.654;5.476;2023-03-08T13:10:38;8.95;;;3.30;;
72920;SDS011;61064;51.654;5.476;2023-03-08T13:13:14;8.93;;;3.60;;
72920;SDS011;61064;51.654;5.476;2023-03-08T13:15:45;9.07;;;3.47;;
72920;SDS011;61064;51.654;5.476;2023-03-08T13:18:16;9.97;;;3.70;;
72920;SDS011;61064;51.654;5.476;2023-03-08T13:23:57;10.38;;;3.70;;
72920;SDS011;61064;51.654;5.476;2023-03-08T13:26:37;9.80;;;3.90;;
72920;SDS011;61064;51.654;5.476;2023-03-08T13:29:31;10.02;;;3.92;;
72920;SDS011;61064;51.654;5.476;2023-03-08T13:32:02;9.93;;;4.03;;
72920;SDS011;61064;51.654;5.476;2023-03-08T13:34:32;8.82;;;3.50;;
72920;SDS011;61064;51.654;5.476;2023-03-08T13:36:59;9.50;;;3.55;;
72920;SDS011;61064;51.654;5.476;2023-03-08T13:39:29;9.77;;;3.92;;
72920;SDS011;61064;51.654;5.476;2023-03-08T13:42:05;8.55;;;3.67;;
72920;SDS011;61064;51.654;5.476;2023-03-08T13:44:33;9.40;;;3.70;;
72920;SDS011;61064;51.654;5.476;2023-03-08T13:47:00;11.00;;;4.03;;
72920;SDS011;61064;51.654;5.476;2023-03-08T13:49:33;8.57;;;3.80;;
72920;SDS011;61064;51.654;5.476;2023-03-08T13:52:01;10.63;;;3.72;;
72920;SDS011;61064;51.654;5.476;2023-03-08T13:54:29;10.73;;;4.30;;
72920;SDS011;61064;51.654;5.476;2023-03-08T13:56:59;9.23;;;3.80;;
72920;SDS011;61064;51.654;5.476;2023-03-08T13:59:27;9.15;;;3.92;;
72920;SDS011;61064;51.654;5.476;2023-03-08T14:01:53;9.13;;;4.20;;
72920;SDS011;61064;51.654;5.476;2023-03-08T14:04:23;9.60;;;4.00;;
72920;SDS011;61064;51.654;5.476;2023-03-08T14:06:52;9.57;;;4.00;;
72920;SDS011;61064;51.654;5.476;2023-03-08T14:09:22;9.45;;;4.10;;
72920;SDS011;61064;51.654;5.476;2023-03-08T14:11:58;9.73;;;4.15;;
72920;SDS011;61064;51.654;5.476;2023-03-08T14:14:36;9.10;;;3.63;;
72920;SDS011;61064;51.654;5.476;2023-03-08T14:17:04;8.88;;;3.72;;
72920;SDS011;61064;51.654;5.476;2023-03-08T14:19:34;10.87;;;4.03;;
72920;SDS011;61064;51.654;5.476;2023-03-08T14:22:03;9.65;;;4.10;;
72920;SDS011;61064;51.654;5.476;2023-03-08T14:24:33;9.50;;;4.00;;
72920;SDS011;61064;51.654;5.476;2023-03-08T14:27:05;10.75;;;4.10;;
72920;SDS011;61064;51.654;5.476;2023-03-08T14:29:58;9.13;;;3.90;;
72920;SDS011;61064;51.654;5.476;2023-03-08T14:32:30;10.30;;;3.75;;
72920;SDS011;61064;51.654;5.476;2023-03-08T14:35:03;10.30;;;4.20;;
72920;SDS011;61064;51.654;5.476;2023-03-08T14:37:42;9.77;;;4.00;;
72920;SDS011;61064;51.654;5.476;2023-03-08T14:40:28;9.23;;;3.78;;
72920;SDS011;61064;51.654;5.476;2023-03-08T14:42:59;10.47;;;3.40;;
72920;SDS011;61064;51.654;5.476;2023-03-08T14:48:01;8.40;;;3.30;;
72920;SDS011;61064;51.654;5.476;2023-03-08T14:50:49;8.77;;;3.53;;
72920;SDS011;61064;51.654;5.476;2023-03-08T14:53:26;8.60;;;3.33;;
72920;SDS011;61064;51.654;5.476;2023-03-08T14:55:54;8.27;;;3.07;;
72920;SDS011;61064;51.654;5.476;2023-03-08T14:58:20;8.45;;;3.40;;
72920;SDS011;61064;51.654;5.476;2023-03-08T15:00:52;9.63;;;3.75;;
72920;SDS011;61064;51.654;5.476;2023-03-08T15:03:18;8.95;;;3.50;;
72920;SDS011;61064;51.654;5.476;2023-03-08T15:05:44;11.10;;;3.83;;
72920;SDS011;61064;51.654;5.476;2023-03-08T15:08:10;9.90;;;4.00;;
72920;SDS011;61064;51.654;5.476;2023-03-08T15:10:38;9.75;;;4.15;;
72920;SDS011;61064;51.654;5.476;2023-03-08T15:13:05;9.90;;;3.90;;
72920;SDS011;61064;51.654;5.476;2023-03-08T15:15:35;10.55;;;4.13;;
72920;SDS011;61064;51.654;5.476;2023-03-08T15:18:01;10.05;;;3.97;;
72920;SDS011;61064;51.654;5.476;2023-03-08T15:20:26;8.27;;;3.33;;
72920;SDS011;61064;51.654;5.476;2023-03-08T15:22:54;8.13;;;3.70;;
72920;SDS011;61064;51.654;5.476;2023-03-08T15:28:14;8.32;;;3.35;;
72920;SDS011;61064;51.654;5.476;2023-03-08T15:30:41;9.75;;;3.88;;
72920;SDS011;61064;51.654;5.476;2023-03-08T15:33:06;8.37;;;3.40;;
72920;SDS011;61064;51.654;5.476;2023-03-08T15:35:32;9.80;;;3.90;;
72920;SDS011;61064;51.654;5.476;2023-03-08T15:37:57;10.30;;;4.20;;
72920;SDS011;61064;51.654;5.476;2023-03-08T15:40:25;9.98;;;3.88;;
72920;SDS011;61064;51.654;5.476;2023-03-08T15:42:52;8.40;;;3.70;;
72920;SDS011;61064;51.654;5.476;2023-03-08T15:45:18;9.45;;;3.38;;
72920;SDS011;61064;51.654;5.476;2023-03-08T15:47:43;9.30;;;3.63;;
72920;SDS011;61064;51.654;5.476;2023-03-08T15:50:39;9.27;;;3.60;;
72920;SDS011;61064;51.654;5.476;2023-03-08T15:53:05;10.02;;;3.80;;
72920;SDS011;61064;51.654;5.476;2023-03-08T15:55:31;9.83;;;3.80;;
72920;SDS011;61064;51.654;5.476;2023-03-08T15:57:56;10.87;;;3.93;;
72920;SDS011;61064;51.654;5.476;2023-03-08T16:00:22;11.90;;;4.30;;